sensor_id;sensor_type;location;lat;lon;timestamp;P1;durP1;ratioP1;P2;durP2;ratioP2
33190;SDS011;19554;42.652;23.364;2024-01-10T00:01:33;6.93;;;4.55;;
33190;SDS011;19554;42.652;23.364;2024-01-10T00:03:58;8.30;;;5.15;;
33190;SDS011;19554;42.652;23.364;2024-01-10T00:06:24;7.82;;;4.90;;
33190;SDS011;19554;42.652;23.364;2024-01-10T00:08:49;8.00;;;5.07;;
33190;SDS011;19554;42.652;23.364;2024-01-10T00:11:15;8.75;;;5.28;;
33190;SDS011;19554;42.652;23.364;2024-01-10T00:13:41;9.43;;;5.55;;
33190;SDS011;19554;42.652;23.364;2024-01-10T00:16:06;9.63;;;5.10;;
33190;SDS011;19554;42.652;23.364;2024-01-10T00:18:32;9.18;;;5.18;;
33190;SDS011;19554;42.652;23.364;2024-01-10T00:20:58;7.95;;;4.65;;
33190;SDS011;19554;42.652;23.364;2024-01-10T00:23:24;9.90;;;5.55;;
33190;SDS011;19554;42.652;23.364;2024-01-10T00:25:49;8.40;;;5.32;;
33190;SDS011;19554;42.652;23.364;2024-01-10T00:28:15;9.20;;;4.72;;
33190;SDS011;19554;42.652;23.364;2024-01-10T00:30:44;9.30;;;4.70;;
33190;SDS011;19554;42.652;23.364;2024-01-10T00:33:12;8.35;;;5.32;;
33190;SDS011;19554;42.652;23.364;2024-01-10T00:35:38;9.00;;;5.25;;
33190;SDS011;19554;42.652;23.364;2024-01-10T00:38:03;8.23;;;5.10;;
33190;SDS011;19554;42.652;23.364;2024-01-10T00:40:29;11.68;;;5.60;;
33190;SDS011;19554;42.652;23.364;2024-01-10T00:42:54;11.25;;;6.25;;
33190;SDS011;19554;42.652;23.364;2024-01-10T00:45:20;11.10;;;6.65;;
33190;SDS011;19554;42.652;23.364;2024-01-10T00:47:45;11.82;;;7.30;;
33190;SDS011;19554;42.652;23.364;2024-01-10T00:50:13;14.77;;;8.00;;
33190;SDS011;19554;42.652;23.364;2024-01-10T00:52:38;11.07;;;6.88;;
33190;SDS011;19554;42.652;23.364;2024-01-10T00:55:04;10.40;;;6.57;;
33190;SDS011;19554;42.652;23.364;2024-01-10T00:57:30;13.07;;;6.85;;
33190;SDS011;19554;42.652;23.364;2024-01-10T00:59:55;12.02;;;7.18;;
33190;SDS011;19554;42.652;23.364;2024-01-10T01:02:21;10.73;;;6.68;;
33190;SDS011;19554;42.652;23.364;2024-01-10T01:04:46;12.35;;;6.90;;
33190;SDS011;19554;42.652;23.364;2024-01-10T01:07:12;12.07;;;6.88;;
33190;SDS011;19554;42.652;23.364;2024-01-10T01:09:37;9.60;;;5.68;;
33190;SDS011;19554;42.652;23.364;2024-01-10T01:12:03;11.40;;;6.50;;
33190;SDS011;19554;42.652;23.364;2024-01-10T01:14:47;8.10;;;5.00;;
33190;SDS011;19554;42.652;23.364;2024-01-10T01:17:12;8.35;;;5.18;;
33190;SDS011;19554;42.652;23.364;2024-01-10T01:19:38;8.73;;;5.00;;
33190;SDS011;19554;42.652;23.364;2024-01-10T01:22:03;8.48;;;5.45;;
33190;SDS011;19554;42.652;23.364;2024-01-10T01:24:29;8.38;;;5.40;;
33190;SDS011;19554;42.652;23.364;2024-01-10T01:26:54;8.32;;;4.80;;
33190;SDS011;19554;42.652;23.364;2024-01-10T01:29:20;8.50;;;4.88;;
33190;SDS011;19554;42.652;23.364;2024-01-10T01:31:45;8.43;;;5.00;;
33190;SDS011;19554;42.652;23.364;2024-01-10T01:34:11;6.63;;;4.88;;
33190;SDS011;19554;42.652;23.364;2024-01-10T01:36:37;8.15;;;5.28;;
33190;SDS011;19554;42.652;23.364;2024-01-10T01:39:02;7.43;;;5.25;;
33190;SDS011;19554;42.652;23.364;2024-01-10T01:41:28;8.82;;;5.47;;
33190;SDS011;19554;42.652;23.364;2024-01-10T01:43:53;10.38;;;5.53;;
33190;SDS011;19554;42.652;23.364;2024-01-10T01:46:19;10.40;;;5.85;;
33190;SDS011;19554;42.652;23.364;2024-01-10T01:48:44;9.23;;;5.32;;
33190;SDS011;19554;42.652;23.364;2024-01-10T01:51:11;8.65;;;5.45;;
33190;SDS011;19554;42.652;23.364;2024-01-10T01:53:39;11.55;;;5.40;;
33190;SDS011;19554;42.652;23.364;2024-01-10T01:56:06;7.97;;;5.15;;
33190;SDS011;19554;42.652;23.364;2024-01-10T01:58:34;10.80;;;5.90;;
33190;SDS011;19554;42.652;23.364;2024-01-10T02:01:01;8.90;;;5.18;;
33190;SDS011;19554;42.652;23.364;2024-01-10T02:03:28;7.30;;;5.18;;
33190;SDS011;19554;42.652;23.364;2024-01-10T02:05:54;10.82;;;6.18;;
33190;SDS011;19554;42.652;23.364;2024-01-10T02:08:20;13.10;;;6.75;;
33190;SDS011;19554;42.652;23.364;2024-01-10T02:10:45;12.20;;;6.68;;
33190;SDS011;19554;42.652;23.364;2024-01-10T02:13:12;14.77;;;7.47;;
33190;SDS011;19554;42.652;23.364;2024-01-10T02:15:38;10.93;;;7.22;;
33190;SDS011;19554;42.652;23.364;2024-01-10T02:18:04;13.85;;;7.57;;
33190;SDS011;19554;42.652;23.364;2024-01-10T02:20:30;11.00;;;7.53;;
33190;SDS011;19554;42.652;23.364;2024-01-10T02:22:56;11.82;;;7.18;;
33190;SDS011;19554;42.652;23.364;2024-01-10T02:25:22;10.95;;;6.78;;
33190;SDS011;19554;42.652;23.364;2024-01-10T02:27:47;11.82;;;5.72;;
33190;SDS011;19554;42.652;23.364;2024-01-10T02:30:13;9.27;;;6.60;;
33190;SDS011;19554;42.652;23.364;2024-01-10T02:32:39;9.02;;;5.95;;
33190;SDS011;19554;42.652;23.364;2024-01-10T02:35:04;10.75;;;6.72;;
33190;SDS011;19554;42.652;23.364;2024-01-10T02:37:30;9.43;;;6.10;;
33190;SDS011;19554;42.652;23.364;2024-01-10T02:39:56;9.27;;;6.43;;
33190;SDS011;19554;42.652;23.364;2024-01-10T02:42:21;10.07;;;6.75;;
33190;SDS011;19554;42.652;23.364;2024-01-10T02:44:47;11.88;;;7.32;;
33190;SDS011;19554;42.652;23.364;2024-01-10T02:47:12;10.95;;;7.15;;
33190;SDS011;19554;42.652;23.364;2024-01-10T02:49:38;10.43;;;7.43;;
33190;SDS011;19554;42.652;23.364;2024-01-10T02:52:03;12.07;;;7.18;;
33190;SDS011;19554;42.652;23.364;2024-01-10T02:54:29;10.57;;;7.05;;
33190;SDS011;19554;42.652;23.364;2024-01-10T02:56:55;11.57;;;7.45;;
33190;SDS011;19554;42.652;23.364;2024-01-10T02:59:20;9.27;;;7.72;;
33190;SDS011;19554;42.652;23.364;2024-01-10T03:01:46;12.85;;;7.10;;
33190;SDS011;19554;42.652;23.364;2024-01-10T03:04:11;9.52;;;7.43;;
33190;SDS011;19554;42.652;23.364;2024-01-10T03:06:37;10.52;;;8.25;;
33190;SDS011;19554;42.652;23.364;2024-01-10T03:09:02;9.88;;;7.72;;
33190;SDS011;19554;42.652;23.364;2024-01-10T03:11:28;9.07;;;7.22;;
33190;SDS011;19554;42.652;23.364;2024-01-10T03:14:03;16.02;;;7.82;;
33190;SDS011;19554;42.652;23.364;2024-01-10T03:16:33;13.50;;;8.07;;
33190;SDS011;19554;42.652;23.364;2024-01-10T03:18:58;13.25;;;7.80;;
33190;SDS011;19554;42.652;23.364;2024-01-10T03:21:24;13.32;;;8.18;;
33190;SDS011;19554;42.652;23.364;2024-01-10T03:23:51;14.00;;;7.80;;
33190;SDS011;19554;42.652;23.364;2024-01-10T03:26:24;12.80;;;7.43;;
33190;SDS011;19554;42.652;23.364;2024-01-10T03:28:50;10.57;;;7.28;;
33190;SDS011;19554;42.652;23.364;2024-01-10T03:31:16;11.27;;;6.95;;
33190;SDS011;19554;42.652;23.364;2024-01-10T03:33:42;10.98;;;6.15;;
33190;SDS011;19554;42.652;23.364;2024-01-10T03:36:10;11.80;;;6.90;;
33190;SDS011;19554;42.652;23.364;2024-01-10T03:38:36;10.60;;;6.07;;
33190;SDS011;19554;42.652;23.364;2024-01-10T03:41:02;9.68;;;6.50;;
33190;SDS011;19554;42.652;23.364;2024-01-10T03:43:28;9.43;;;6.32;;
33190;SDS011;19554;42.652;23.364;2024-01-10T03:45:53;8.15;;;5.55;;
33190;SDS011;19554;42.652;23.364;2024-01-10T03:48:19;12.25;;;5.78;;
33190;SDS011;19554;42.652;23.364;2024-01-10T03:50:44;9.55;;;6.10;;
33190;SDS011;19554;42.652;23.364;2024-01-10T03:53:10;11.10;;;6.40;;
33190;SDS011;19554;42.652;23.364;2024-01-10T03:55:35;9.73;;;5.72;;
33190;SDS011;19554;42.652;23.364;2024-01-10T03:58:00;10.20;;;5.53;;
33190;SDS011;19554;42.652;23.364;2024-01-10T04:00:26;8.85;;;5.72;;
33190;SDS011;19554;42.652;23.364;2024-01-10T04:02:52;9.75;;;5.68;;
33190;SDS011;19554;42.652;23.364;2024-01-10T04:05:18;10.88;;;6.35;;
33190;SDS011;19554;42.652;23.364;2024-01-10T04:07:45;9.13;;;6.10;;
33190;SDS011;19554;42.652;23.364;2024-01-10T04:10:11;10.23;;;6.22;;
33190;SDS011;19554;42.652;23.364;2024-01-10T04:12:45;10.38;;;5.68;;
33190;SDS011;19554;42.652;23.364;2024-01-10T04:15:11;11.43;;;6.20;;
33190;SDS011;19554;42.652;23.364;2024-01-10T04:17:37;9.68;;;5.65;;
33190;SDS011;19554;42.652;23.364;2024-01-10T04:20:03;9.75;;;5.20;;
33190;SDS011;19554;42.652;23.364;2024-01-10T04:22:30;9.25;;;5.85;;
33190;SDS011;19554;42.652;23.364;2024-01-10T04:24:59;9.18;;;5.93;;
33190;SDS011;19554;42.652;23.364;2024-01-10T04:27:26;12.45;;;5.95;;
33190;SDS011;19554;42.652;23.364;2024-01-10T04:29:52;13.52;;;5.88;;
33190;SDS011;19554;42.652;23.364;2024-01-10T04:32:18;10.77;;;5.75;;
33190;SDS011;19554;42.652;23.364;2024-01-10T04:34:44;8.85;;;5.40;;
33190;SDS011;19554;42.652;23.364;2024-01-10T04:37:09;8.10;;;5.68;;
33190;SDS011;19554;42.652;23.364;2024-01-10T04:39:35;13.10;;;6.30;;
33190;SDS011;19554;42.652;23.364;2024-01-10T04:42:02;10.50;;;6.47;;
33190;SDS011;19554;42.652;23.364;2024-01-10T04:44:29;11.95;;;6.00;;
33190;SDS011;19554;42.652;23.364;2024-01-10T04:46:54;7.97;;;5.78;;
33190;SDS011;19554;42.652;23.364;2024-01-10T04:49:20;8.52;;;5.30;;
33190;SDS011;19554;42.652;23.364;2024-01-10T04:51:45;10.43;;;5.70;;
33190;SDS011;19554;42.652;23.364;2024-01-10T04:54:11;9.60;;;6.38;;
33190;SDS011;19554;42.652;23.364;2024-01-10T04:56:37;12.02;;;6.75;;
33190;SDS011;19554;42.652;23.364;2024-01-10T04:59:03;9.32;;;6.43;;
33190;SDS011;19554;42.652;23.364;2024-01-10T05:01:28;10.32;;;6.13;;
33190;SDS011;19554;42.652;23.364;2024-01-10T05:03:54;13.80;;;6.60;;
33190;SDS011;19554;42.652;23.364;2024-01-10T05:06:20;10.27;;;6.75;;
33190;SDS011;19554;42.652;23.364;2024-01-10T05:08:45;9.82;;;6.47;;
33190;SDS011;19554;42.652;23.364;2024-01-10T05:11:11;10.88;;;6.57;;
33190;SDS011;19554;42.652;23.364;2024-01-10T05:13:38;14.95;;;8.23;;
33190;SDS011;19554;42.652;23.364;2024-01-10T05:16:05;10.80;;;6.03;;
33190;SDS011;19554;42.652;23.364;2024-01-10T05:18:30;13.18;;;6.85;;
33190;SDS011;19554;42.652;23.364;2024-01-10T05:20:56;11.57;;;7.03;;
33190;SDS011;19554;42.652;23.364;2024-01-10T05:23:22;12.82;;;6.32;;
33190;SDS011;19554;42.652;23.364;2024-01-10T05:25:48;9.68;;;6.20;;
33190;SDS011;19554;42.652;23.364;2024-01-10T05:28:14;14.85;;;6.65;;
33190;SDS011;19554;42.652;23.364;2024-01-10T05:30:40;10.32;;;6.28;;
33190;SDS011;19554;42.652;23.364;2024-01-10T05:33:06;11.60;;;7.25;;
33190;SDS011;19554;42.652;23.364;2024-01-10T05:35:31;14.27;;;6.75;;
33190;SDS011;19554;42.652;23.364;2024-01-10T05:37:57;11.27;;;6.43;;
33190;SDS011;19554;42.652;23.364;2024-01-10T05:40:22;9.77;;;6.57;;
33190;SDS011;19554;42.652;23.364;2024-01-10T05:42:48;13.25;;;8.73;;
33190;SDS011;19554;42.652;23.364;2024-01-10T05:45:14;15.77;;;7.72;;
33190;SDS011;19554;42.652;23.364;2024-01-10T05:47:43;10.38;;;6.25;;
33190;SDS011;19554;42.652;23.364;2024-01-10T05:50:08;12.90;;;6.55;;
33190;SDS011;19554;42.652;23.364;2024-01-10T05:52:34;10.10;;;6.30;;
33190;SDS011;19554;42.652;23.364;2024-01-10T05:54:59;10.90;;;6.57;;
33190;SDS011;19554;42.652;23.364;2024-01-10T05:57:27;11.25;;;5.90;;
33190;SDS011;19554;42.652;23.364;2024-01-10T05:59:53;16.35;;;7.97;;
33190;SDS011;19554;42.652;23.364;2024-01-10T06:02:22;13.15;;;7.45;;
33190;SDS011;19554;42.652;23.364;2024-01-10T06:04:48;15.90;;;8.10;;
33190;SDS011;19554;42.652;23.364;2024-01-10T06:07:13;13.88;;;8.02;;
33190;SDS011;19554;42.652;23.364;2024-01-10T06:09:38;14.98;;;7.88;;
33190;SDS011;19554;42.652;23.364;2024-01-10T06:12:05;15.70;;;7.20;;
33190;SDS011;19554;42.652;23.364;2024-01-10T06:14:31;15.38;;;7.00;;
33190;SDS011;19554;42.652;23.364;2024-01-10T06:16:57;14.30;;;8.68;;
33190;SDS011;19554;42.652;23.364;2024-01-10T06:19:25;12.48;;;7.63;;
33190;SDS011;19554;42.652;23.364;2024-01-10T06:21:50;33.88;;;16.58;;
33190;SDS011;19554;42.652;23.364;2024-01-10T06:24:17;18.70;;;11.18;;
33190;SDS011;19554;42.652;23.364;2024-01-10T06:26:43;13.88;;;8.48;;
33190;SDS011;19554;42.652;23.364;2024-01-10T06:29:08;15.80;;;9.18;;
33190;SDS011;19554;42.652;23.364;2024-01-10T06:31:34;35.75;;;24.05;;
33190;SDS011;19554;42.652;23.364;2024-01-10T06:33:59;19.10;;;11.73;;
33190;SDS011;19554;42.652;23.364;2024-01-10T06:36:25;18.45;;;9.65;;
33190;SDS011;19554;42.652;23.364;2024-01-10T06:38:50;20.35;;;10.80;;
33190;SDS011;19554;42.652;23.364;2024-01-10T06:41:15;17.88;;;10.68;;
33190;SDS011;19554;42.652;23.364;2024-01-10T06:43:41;14.70;;;8.32;;
33190;SDS011;19554;42.652;23.364;2024-01-10T06:46:06;26.60;;;10.75;;
33190;SDS011;19554;42.652;23.364;2024-01-10T06:48:32;22.42;;;11.60;;
33190;SDS011;19554;42.652;23.364;2024-01-10T06:50:58;12.82;;;7.53;;
33190;SDS011;19554;42.652;23.364;2024-01-10T06:53:24;11.45;;;6.85;;
33190;SDS011;19554;42.652;23.364;2024-01-10T06:55:49;13.80;;;7.07;;
33190;SDS011;19554;42.652;23.364;2024-01-10T06:58:15;19.67;;;8.02;;
33190;SDS011;19554;42.652;23.364;2024-01-10T07:00:41;13.43;;;8.18;;
33190;SDS011;19554;42.652;23.364;2024-01-10T07:03:06;24.42;;;10.13;;
33190;SDS011;19554;42.652;23.364;2024-01-10T07:05:32;19.13;;;9.88;;
33190;SDS011;19554;42.652;23.364;2024-01-10T07:07:58;18.42;;;11.45;;
33190;SDS011;19554;42.652;23.364;2024-01-10T07:10:24;17.38;;;9.90;;
33190;SDS011;19554;42.652;23.364;2024-01-10T07:12:53;13.75;;;7.72;;
33190;SDS011;19554;42.652;23.364;2024-01-10T07:15:19;14.38;;;7.95;;
33190;SDS011;19554;42.652;23.364;2024-01-10T07:17:44;16.33;;;8.43;;
33190;SDS011;19554;42.652;23.364;2024-01-10T07:20:10;19.10;;;8.70;;
33190;SDS011;19554;42.652;23.364;2024-01-10T07:22:37;14.82;;;7.30;;
33190;SDS011;19554;42.652;23.364;2024-01-10T07:25:06;16.10;;;7.90;;
33190;SDS011;19554;42.652;23.364;2024-01-10T07:27:42;16.05;;;7.70;;
33190;SDS011;19554;42.652;23.364;2024-01-10T07:30:08;16.25;;;7.50;;
33190;SDS011;19554;42.652;23.364;2024-01-10T07:32:39;17.05;;;8.38;;
33190;SDS011;19554;42.652;23.364;2024-01-10T07:35:05;13.00;;;7.60;;
33190;SDS011;19554;42.652;23.364;2024-01-10T07:37:35;11.52;;;6.38;;
33190;SDS011;19554;42.652;23.364;2024-01-10T07:40:04;14.80;;;5.78;;
33190;SDS011;19554;42.652;23.364;2024-01-10T07:42:34;14.93;;;7.18;;
33190;SDS011;19554;42.652;23.364;2024-01-10T07:45:00;16.10;;;7.45;;
33190;SDS011;19554;42.652;23.364;2024-01-10T07:47:32;14.30;;;8.00;;
33190;SDS011;19554;42.652;23.364;2024-01-10T07:50:08;15.95;;;7.32;;
33190;SDS011;19554;42.652;23.364;2024-01-10T07:52:35;19.38;;;9.48;;
33190;SDS011;19554;42.652;23.364;2024-01-10T07:55:01;16.90;;;8.20;;
33190;SDS011;19554;42.652;23.364;2024-01-10T07:57:27;18.15;;;8.30;;
33190;SDS011;19554;42.652;23.364;2024-01-10T07:59:52;27.08;;;12.18;;
33190;SDS011;19554;42.652;23.364;2024-01-10T08:02:18;15.95;;;7.88;;
33190;SDS011;19554;42.652;23.364;2024-01-10T08:04:44;16.50;;;8.20;;
33190;SDS011;19554;42.652;23.364;2024-01-10T08:07:10;22.38;;;8.18;;
33190;SDS011;19554;42.652;23.364;2024-01-10T08:09:36;12.70;;;6.03;;
33190;SDS011;19554;42.652;23.364;2024-01-10T08:12:01;8.63;;;5.90;;
33190;SDS011;19554;42.652;23.364;2024-01-10T08:14:28;17.23;;;6.80;;
33190;SDS011;19554;42.652;23.364;2024-01-10T08:16:53;16.27;;;7.85;;
33190;SDS011;19554;42.652;23.364;2024-01-10T08:19:19;17.40;;;7.30;;
33190;SDS011;19554;42.652;23.364;2024-01-10T08:21:46;15.70;;;7.25;;
33190;SDS011;19554;42.652;23.364;2024-01-10T08:24:11;12.70;;;6.05;;
33190;SDS011;19554;42.652;23.364;2024-01-10T08:26:37;12.38;;;7.00;;
33190;SDS011;19554;42.652;23.364;2024-01-10T08:29:03;21.23;;;9.75;;
33190;SDS011;19554;42.652;23.364;2024-01-10T08:31:29;42.20;;;20.23;;
33190;SDS011;19554;42.652;23.364;2024-01-10T08:33:54;18.02;;;9.65;;
33190;SDS011;19554;42.652;23.364;2024-01-10T08:36:22;12.80;;;6.68;;
33190;SDS011;19554;42.652;23.364;2024-01-10T08:38:49;20.35;;;8.05;;
33190;SDS011;19554;42.652;23.364;2024-01-10T08:41:15;17.02;;;6.80;;
33190;SDS011;19554;42.652;23.364;2024-01-10T08:43:41;11.88;;;6.75;;
33190;SDS011;19554;42.652;23.364;2024-01-10T08:46:08;12.52;;;6.78;;
33190;SDS011;19554;42.652;23.364;2024-01-10T08:48:33;12.27;;;6.47;;
33190;SDS011;19554;42.652;23.364;2024-01-10T08:50:59;10.70;;;6.30;;
33190;SDS011;19554;42.652;23.364;2024-01-10T08:53:25;14.38;;;4.82;;
33190;SDS011;19554;42.652;23.364;2024-01-10T08:55:50;9.98;;;5.68;;
33190;SDS011;19554;42.652;23.364;2024-01-10T08:58:16;16.60;;;8.52;;
33190;SDS011;19554;42.652;23.364;2024-01-10T09:00:41;11.88;;;6.20;;
33190;SDS011;19554;42.652;23.364;2024-01-10T09:03:06;13.40;;;6.57;;
33190;SDS011;19554;42.652;23.364;2024-01-10T09:05:32;11.18;;;5.15;;
33190;SDS011;19554;42.652;23.364;2024-01-10T09:07:58;7.40;;;5.07;;
33190;SDS011;19554;42.652;23.364;2024-01-10T09:10:23;13.85;;;5.22;;
33190;SDS011;19554;42.652;23.364;2024-01-10T09:12:53;15.13;;;5.88;;
33190;SDS011;19554;42.652;23.364;2024-01-10T09:15:19;25.20;;;8.98;;
33190;SDS011;19554;42.652;23.364;2024-01-10T09:17:44;12.90;;;6.90;;
33190;SDS011;19554;42.652;23.364;2024-01-10T09:20:11;15.00;;;5.40;;
33190;SDS011;19554;42.652;23.364;2024-01-10T09:22:37;14.85;;;6.13;;
33190;SDS011;19554;42.652;23.364;2024-01-10T09:25:04;13.75;;;5.72;;
33190;SDS011;19554;42.652;23.364;2024-01-10T09:27:33;15.90;;;6.45;;
33190;SDS011;19554;42.652;23.364;2024-01-10T09:29:59;12.75;;;7.20;;
33190;SDS011;19554;42.652;23.364;2024-01-10T09:32:27;15.43;;;6.38;;
33190;SDS011;19554;42.652;23.364;2024-01-10T09:34:53;15.43;;;7.97;;
33190;SDS011;19554;42.652;23.364;2024-01-10T09:37:19;18.27;;;6.93;;
33190;SDS011;19554;42.652;23.364;2024-01-10T09:39:44;18.20;;;7.82;;
33190;SDS011;19554;42.652;23.364;2024-01-10T09:42:10;11.70;;;6.03;;
33190;SDS011;19554;42.652;23.364;2024-01-10T09:44:36;15.15;;;7.53;;
33190;SDS011;19554;42.652;23.364;2024-01-10T09:47:01;14.93;;;7.20;;
33190;SDS011;19554;42.652;23.364;2024-01-10T09:49:27;14.43;;;7.00;;
33190;SDS011;19554;42.652;23.364;2024-01-10T09:51:56;12.82;;;7.63;;
33190;SDS011;19554;42.652;23.364;2024-01-10T09:54:26;13.23;;;7.57;;
33190;SDS011;19554;42.652;23.364;2024-01-10T09:56:54;14.23;;;8.13;;
33190;SDS011;19554;42.652;23.364;2024-01-10T09:59:20;11.93;;;7.38;;
33190;SDS011;19554;42.652;23.364;2024-01-10T10:01:46;21.35;;;8.77;;
33190;SDS011;19554;42.652;23.364;2024-01-10T10:04:12;16.42;;;8.00;;
33190;SDS011;19554;42.652;23.364;2024-01-10T10:06:38;16.17;;;8.25;;
33190;SDS011;19554;42.652;23.364;2024-01-10T10:09:03;16.90;;;8.55;;
33190;SDS011;19554;42.652;23.364;2024-01-10T10:11:29;13.88;;;8.00;;
33190;SDS011;19554;42.652;23.364;2024-01-10T10:13:55;12.48;;;7.70;;
33190;SDS011;19554;42.652;23.364;2024-01-10T10:16:24;20.10;;;8.82;;
33190;SDS011;19554;42.652;23.364;2024-01-10T10:18:53;15.10;;;8.55;;
33190;SDS011;19554;42.652;23.364;2024-01-10T10:21:23;22.50;;;8.75;;
33190;SDS011;19554;42.652;23.364;2024-01-10T10:23:58;16.05;;;9.27;;
33190;SDS011;19554;42.652;23.364;2024-01-10T10:26:26;16.75;;;7.72;;
33190;SDS011;19554;42.652;23.364;2024-01-10T10:28:53;18.13;;;8.98;;
33190;SDS011;19554;42.652;23.364;2024-01-10T10:31:19;16.45;;;8.40;;
33190;SDS011;19554;42.652;23.364;2024-01-10T10:33:45;18.65;;;9.07;;
33190;SDS011;19554;42.652;23.364;2024-01-10T10:36:14;15.93;;;9.18;;
33190;SDS011;19554;42.652;23.364;2024-01-10T10:38:40;13.50;;;8.18;;
33190;SDS011;19554;42.652;23.364;2024-01-10T10:41:05;13.88;;;8.27;;
33190;SDS011;19554;42.652;23.364;2024-01-10T10:43:38;15.65;;;8.55;;
33190;SDS011;19554;42.652;23.364;2024-01-10T10:46:05;15.25;;;8.73;;
33190;SDS011;19554;42.652;23.364;2024-01-10T10:48:32;12.98;;;8.55;;
33190;SDS011;19554;42.652;23.364;2024-01-10T10:51:07;16.08;;;9.80;;
33190;SDS011;19554;42.652;23.364;2024-01-10T10:53:38;17.13;;;9.68;;
33190;SDS011;19554;42.652;23.364;2024-01-10T10:56:05;17.08;;;10.18;;
33190;SDS011;19554;42.652;23.364;2024-01-10T10:58:33;20.92;;;10.32;;
33190;SDS011;19554;42.652;23.364;2024-01-10T11:01:02;21.02;;;11.32;;
33190;SDS011;19554;42.652;23.364;2024-01-10T11:03:30;24.98;;;10.98;;
33190;SDS011;19554;42.652;23.364;2024-01-10T11:05:59;18.35;;;11.05;;
33190;SDS011;19554;42.652;23.364;2024-01-10T11:08:26;20.20;;;11.50;;
33190;SDS011;19554;42.652;23.364;2024-01-10T11:10:52;21.27;;;12.07;;
33190;SDS011;19554;42.652;23.364;2024-01-10T11:13:41;21.75;;;11.85;;
33190;SDS011;19554;42.652;23.364;2024-01-10T11:24:56;24.60;;;13.48;;
33190;SDS011;19554;42.652;23.364;2024-01-10T11:27:22;24.90;;;12.55;;
33190;SDS011;19554;42.652;23.364;2024-01-10T11:29:47;23.90;;;12.23;;
33190;SDS011;19554;42.652;23.364;2024-01-10T11:32:14;21.27;;;11.55;;
33190;SDS011;19554;42.652;23.364;2024-01-10T11:34:51;22.45;;;12.65;;
33190;SDS011;19554;42.652;23.364;2024-01-10T11:37:19;27.30;;;12.38;;
33190;SDS011;19554;42.652;23.364;2024-01-10T11:39:45;21.50;;;12.35;;
33190;SDS011;19554;42.652;23.364;2024-01-10T11:42:10;29.33;;;13.43;;
33190;SDS011;19554;42.652;23.364;2024-01-10T11:44:55;29.35;;;13.63;;
33190;SDS011;19554;42.652;23.364;2024-01-10T11:47:20;24.40;;;12.55;;
33190;SDS011;19554;42.652;23.364;2024-01-10T11:49:56;28.90;;;12.95;;
33190;SDS011;19554;42.652;23.364;2024-01-10T11:52:23;32.00;;;14.05;;
33190;SDS011;19554;42.652;23.364;2024-01-10T11:54:50;25.70;;;13.02;;
33190;SDS011;19554;42.652;23.364;2024-01-10T11:57:21;28.00;;;13.88;;
33190;SDS011;19554;42.652;23.364;2024-01-10T11:59:52;27.95;;;13.43;;
33190;SDS011;19554;42.652;23.364;2024-01-10T12:02:19;28.48;;;14.18;;
33190;SDS011;19554;42.652;23.364;2024-01-10T12:04:45;26.23;;;13.05;;
33190;SDS011;19554;42.652;23.364;2024-01-10T12:07:11;25.25;;;13.80;;
33190;SDS011;19554;42.652;23.364;2024-01-10T12:09:38;25.63;;;14.13;;
33190;SDS011;19554;42.652;23.364;2024-01-10T12:12:04;25.83;;;14.25;;
33190;SDS011;19554;42.652;23.364;2024-01-10T12:14:31;30.88;;;14.88;;
33190;SDS011;19554;42.652;23.364;2024-01-10T12:16:56;29.95;;;13.63;;
33190;SDS011;19554;42.652;23.364;2024-01-10T12:19:22;29.33;;;15.30;;
33190;SDS011;19554;42.652;23.364;2024-01-10T12:21:48;27.38;;;13.60;;
33190;SDS011;19554;42.652;23.364;2024-01-10T12:24:14;27.77;;;13.20;;
33190;SDS011;19554;42.652;23.364;2024-01-10T12:26:43;27.35;;;14.15;;
33190;SDS011;19554;42.652;23.364;2024-01-10T12:29:10;31.77;;;16.65;;
33190;SDS011;19554;42.652;23.364;2024-01-10T12:31:36;33.10;;;16.20;;
33190;SDS011;19554;42.652;23.364;2024-01-10T12:34:02;40.00;;;15.75;;
33190;SDS011;19554;42.652;23.364;2024-01-10T12:36:28;26.77;;;15.52;;
33190;SDS011;19554;42.652;23.364;2024-01-10T12:38:53;29.17;;;15.30;;
33190;SDS011;19554;42.652;23.364;2024-01-10T12:41:19;26.35;;;15.30;;
33190;SDS011;19554;42.652;23.364;2024-01-10T12:43:54;33.75;;;17.05;;
33190;SDS011;19554;42.652;23.364;2024-01-10T12:46:20;29.95;;;16.63;;
33190;SDS011;19554;42.652;23.364;2024-01-10T12:48:57;30.58;;;16.95;;
33190;SDS011;19554;42.652;23.364;2024-01-10T12:51:26;35.20;;;17.70;;
33190;SDS011;19554;42.652;23.364;2024-01-10T12:53:52;33.75;;;16.83;;
33190;SDS011;19554;42.652;23.364;2024-01-10T12:56:18;34.55;;;17.58;;
33190;SDS011;19554;42.652;23.364;2024-01-10T12:58:44;29.67;;;17.23;;
33190;SDS011;19554;42.652;23.364;2024-01-10T13:01:10;40.15;;;17.70;;
33190;SDS011;19554;42.652;23.364;2024-01-10T13:03:37;29.10;;;16.27;;
33190;SDS011;19554;42.652;23.364;2024-01-10T13:06:03;33.13;;;17.35;;
33190;SDS011;19554;42.652;23.364;2024-01-10T13:08:29;30.40;;;16.60;;
33190;SDS011;19554;42.652;23.364;2024-01-10T13:10:54;34.95;;;17.17;;
33190;SDS011;19554;42.652;23.364;2024-01-10T13:13:20;28.50;;;15.75;;
33190;SDS011;19554;42.652;23.364;2024-01-10T13:15:46;31.70;;;16.55;;
33190;SDS011;19554;42.652;23.364;2024-01-10T13:18:15;41.60;;;17.60;;
33190;SDS011;19554;42.652;23.364;2024-01-10T13:20:44;31.58;;;17.33;;
33190;SDS011;19554;42.652;23.364;2024-01-10T13:23:10;31.48;;;17.25;;
33190;SDS011;19554;42.652;23.364;2024-01-10T13:25:36;32.78;;;16.15;;
33190;SDS011;19554;42.652;23.364;2024-01-10T13:28:03;27.88;;;15.77;;
33190;SDS011;19554;42.652;23.364;2024-01-10T13:30:29;29.65;;;15.23;;
33190;SDS011;19554;42.652;23.364;2024-01-10T13:32:55;32.00;;;15.85;;
33190;SDS011;19554;42.652;23.364;2024-01-10T13:35:21;33.85;;;15.85;;
33190;SDS011;19554;42.652;23.364;2024-01-10T13:37:47;26.52;;;15.15;;
33190;SDS011;19554;42.652;23.364;2024-01-10T13:40:13;30.17;;;16.35;;
33190;SDS011;19554;42.652;23.364;2024-01-10T13:42:39;38.13;;;16.55;;
33190;SDS011;19554;42.652;23.364;2024-01-10T13:45:05;39.15;;;17.65;;
33190;SDS011;19554;42.652;23.364;2024-01-10T13:47:32;34.72;;;17.15;;
33190;SDS011;19554;42.652;23.364;2024-01-10T13:49:59;30.17;;;16.58;;
33190;SDS011;19554;42.652;23.364;2024-01-10T13:52:24;31.77;;;15.70;;
33190;SDS011;19554;42.652;23.364;2024-01-10T13:54:50;46.97;;;25.27;;
33190;SDS011;19554;42.652;23.364;2024-01-10T13:57:16;32.80;;;17.73;;
33190;SDS011;19554;42.652;23.364;2024-01-10T13:59:42;31.35;;;17.48;;
33190;SDS011;19554;42.652;23.364;2024-01-10T14:02:07;35.00;;;18.75;;
33190;SDS011;19554;42.652;23.364;2024-01-10T14:04:33;34.20;;;17.27;;
33190;SDS011;19554;42.652;23.364;2024-01-10T14:06:59;33.47;;;17.42;;
33190;SDS011;19554;42.652;23.364;2024-01-10T14:09:24;29.55;;;16.83;;
33190;SDS011;19554;42.652;23.364;2024-01-10T14:11:49;34.17;;;16.40;;
33190;SDS011;19554;42.652;23.364;2024-01-10T14:14:18;28.73;;;16.73;;
33190;SDS011;19554;42.652;23.364;2024-01-10T14:16:43;33.78;;;16.85;;
33190;SDS011;19554;42.652;23.364;2024-01-10T14:19:09;34.05;;;17.45;;
33190;SDS011;19554;42.652;23.364;2024-01-10T14:21:34;29.38;;;17.02;;
33190;SDS011;19554;42.652;23.364;2024-01-10T14:24:00;38.38;;;16.33;;
33190;SDS011;19554;42.652;23.364;2024-01-10T14:26:26;36.95;;;16.95;;